createdAt,value
2018-08-22T00:02:08.732Z,94987.88
2018-08-22T00:04:37.354Z,94991.56
2018-08-22T00:07:05.988Z,94995.88
2018-08-22T00:09:34.918Z,94992.18
2018-08-22T00:12:03.768Z,94997.98
2018-08-22T00:14:32.955Z,94995.12
2018-08-22T00:17:01.951Z,94990.18
2018-08-22T00:19:30.740Z,94992.75
2018-08-22T00:21:59.570Z,94992.10
2018-08-22T00:24:28.761Z,94990.48
2018-08-22T00:26:57.709Z,94985.77
2018-08-22T00:29:26.587Z,94976.05
2018-08-22T00:31:55.330Z,94978.95
2018-08-22T00:34:24.103Z,94980.30
2018-08-22T00:36:52.810Z,94983.09
2018-08-22T00:39:22.018Z,94990.94
2018-08-22T00:41:51.090Z,94981.27
2018-08-22T00:44:20.139Z,94987.95
2018-08-22T00:46:49.136Z,94992.30
2018-08-22T00:49:18.074Z,94995.20
2018-08-22T00:51:47.124Z,94993.61
2018-08-22T00:54:16.016Z,94998.59
2018-08-22T00:56:45.263Z,94995.98
2018-08-22T00:59:14.126Z,94999.65
2018-08-22T01:01:42.981Z,95009.37
2018-08-22T01:04:11.715Z,95002.62
2018-08-22T01:06:40.408Z,95003.68
2018-08-22T01:09:09.530Z,95002.29
2018-08-22T01:11:38.388Z,94999.79
2018-08-22T01:14:07.413Z,95004.05
2018-08-22T01:16:36.214Z,95007.73
2018-08-22T01:19:04.891Z,95007.50
2018-08-22T01:21:33.757Z,95011.72
2018-08-22T01:24:02.847Z,95013.36
2018-08-22T01:26:31.619Z,95006.45
2018-08-22T01:29:00.682Z,95003.55
2018-08-22T01:31:29.466Z,95008.27
2018-08-22T01:33:58.214Z,95008.56
2018-08-22T01:36:27.154Z,95004.05
2018-08-22T01:38:55.905Z,95001.86
2018-08-22T01:41:24.581Z,95007.89
2018-08-22T01:43:53.357Z,95003.19
2018-08-22T01:46:22.211Z,94997.74
2018-08-22T01:48:51.107Z,95005.98
2018-08-22T01:51:19.960Z,95002.81
2018-08-22T01:53:49.114Z,95005.19
2018-08-22T01:56:18.060Z,95002.78
2018-08-22T01:58:47.029Z,95008.27
2018-08-22T02:01:16.012Z,95007.23
2018-08-22T02:03:45.255Z,95011.52
2018-08-22T02:06:13.987Z,95008.84
2018-08-22T02:08:42.861Z,95018.34
2018-08-22T02:11:11.859Z,95011.52
2018-08-22T02:13:40.600Z,95012.80
2018-08-22T02:16:09.274Z,95011.48
2018-08-22T02:18:37.897Z,95016.73
2018-08-22T02:21:06.950Z,95011.27
2018-08-22T02:23:35.657Z,95009.95
2018-08-22T02:26:04.783Z,95018.17
2018-08-22T02:28:33.519Z,95021.12
2018-08-22T02:31:02.554Z,95012.98
2018-08-22T02:33:31.431Z,95011.94
2018-08-22T02:36:00.226Z,95011.16
2018-08-22T02:38:29.402Z,95009.64
2018-08-22T02:40:58.633Z,95012.02
2018-08-22T02:43:27.389Z,95015.89
2018-08-22T02:45:56.123Z,95011.94
2018-08-22T02:48:24.894Z,95011.14
2018-08-22T02:50:54.535Z,95010.41
2018-08-22T02:53:23.674Z,95007.75
2018-08-22T02:55:52.752Z,95008.84
2018-08-22T02:58:21.862Z,95018.08
2018-08-22T03:00:50.858Z,95015.44
2018-08-22T03:03:20.043Z,95019.38
2018-08-22T03:05:48.843Z,95018.30
2018-08-22T03:08:17.894Z,95022.73
2018-08-22T03:10:46.891Z,95023.00
2018-08-22T03:13:15.956Z,95029.63
2018-08-22T03:15:44.698Z,95028.23
2018-08-22T03:18:13.437Z,95026.16
2018-08-22T03:20:42.176Z,95026.41
2018-08-22T03:23:10.788Z,95026.83
2018-08-22T03:25:39.612Z,95031.63
2018-08-22T03:28:08.546Z,95023.42
2018-08-22T03:30:37.509Z,95029.82
2018-08-22T03:33:06.612Z,95038.59
2018-08-22T03:35:35.651Z,95041.41
2018-08-22T03:38:04.605Z,95038.52
2018-08-22T03:40:33.428Z,95044.64
2018-08-22T03:43:02.463Z,95045.48
2018-08-22T03:45:31.387Z,95049.94
2018-08-22T03:48:00.247Z,95059.14
2018-08-22T03:50:29.208Z,95052.80
2018-08-22T03:52:57.962Z,95059.63
2018-08-22T03:55:26.857Z,95058.36
2018-08-22T03:57:56.048Z,95065.48
2018-08-22T04:00:24.906Z,95062.82
2018-08-22T04:02:53.926Z,95055.47
2018-08-22T04:05:22.679Z,95070.20
2018-08-22T04:07:51.579Z,95073.64
2018-08-22T04:10:20.473Z,95074.12
2018-08-22T04:12:49.299Z,95078.86
2018-08-22T04:15:18.198Z,95077.28
2018-08-22T04:17:47.029Z,95083.04
2018-08-22T04:20:16.142Z,95079.87
2018-08-22T04:22:45.026Z,95090.16
2018-08-22T04:25:13.937Z,95093.55
2018-08-22T04:27:42.888Z,95095.64
2018-08-22T04:30:11.623Z,95101.39
2018-08-22T04:32:40.458Z,95100.84
2018-08-22T04:35:09.417Z,95094.83
2018-08-22T04:37:38.287Z,95102.96
2018-08-22T04:40:07.338Z,95098.38
2018-08-22T04:42:36.419Z,95097.27
2018-08-22T04:45:05.326Z,95095.15
2018-08-22T04:47:34.350Z,95088.25
2018-08-22T04:50:03.292Z,95093.80
2018-08-22T04:52:32.135Z,95094.03
2018-08-22T04:55:01.098Z,95094.82
2018-08-22T04:57:30.282Z,95104.45
2018-08-22T04:59:59.029Z,95102.43
2018-08-22T05:02:27.902Z,95106.58
2018-08-22T05:04:57.000Z,95103.84
2018-08-22T05:07:26.011Z,95101.71
2018-08-22T05:09:54.621Z,95102.82
2018-08-22T05:12:23.567Z,95101.53
2018-08-22T05:14:52.399Z,95098.81
2018-08-22T05:17:21.274Z,95105.33
2018-08-22T05:19:50.215Z,95098.02
2018-08-22T05:22:19.469Z,95094.89
2018-08-22T05:24:48.435Z,95096.68
2018-08-22T05:27:17.627Z,95099.76
2018-08-22T05:29:46.639Z,95097.38
2018-08-22T05:32:15.427Z,95099.86
2018-08-22T05:34:44.282Z,95106.85
2018-08-22T05:37:13.137Z,95113.00
2018-08-22T05:39:42.055Z,95108.70
2018-08-22T05:42:11.154Z,95103.52
2018-08-22T05:44:40.163Z,95111.86
2018-08-22T05:47:09.430Z,95114.41
2018-08-22T05:49:38.794Z,95116.32
2018-08-22T05:52:14.381Z,95119.52
2018-08-22T05:54:43.181Z,95116.70
2018-08-22T05:57:12.073Z,95115.02
2018-08-22T05:59:41.019Z,95112.94
2018-08-22T06:02:10.403Z,95121.27
2018-08-22T06:04:39.087Z,95117.03
2018-08-22T06:07:07.952Z,95112.36
2018-08-22T06:09:37.046Z,95113.17
2018-08-22T06:12:06.135Z,95109.60
2018-08-22T06:14:35.200Z,95119.88
2018-08-22T06:17:04.281Z,95111.69
2018-08-22T06:19:32.963Z,95115.28
2018-08-22T06:22:02.095Z,95115.31
2018-08-22T06:24:31.280Z,95117.84
2018-08-22T06:27:00.230Z,95117.08
2018-08-22T06:29:29.603Z,95110.92
2018-08-22T06:31:58.472Z,95110.12
2018-08-22T06:34:27.145Z,95112.93
2018-08-22T06:36:55.857Z,95119.20
2018-08-22T06:39:25.001Z,95121.52
2018-08-22T06:41:53.781Z,95129.60
2018-08-22T06:44:22.595Z,95127.72
2018-08-22T06:46:51.961Z,95127.53
2018-08-22T06:49:20.786Z,95128.14
2018-08-22T06:51:50.029Z,95128.55
2018-08-22T06:54:18.790Z,95122.94
2018-08-22T06:56:47.677Z,95127.23
2018-08-22T06:59:16.383Z,95120.41
2018-08-22T07:01:45.277Z,95127.34
2018-08-22T07:04:14.109Z,95132.86
2018-08-22T07:06:42.910Z,95128.10
2018-08-22T07:09:12.535Z,95129.48
2018-08-22T07:11:41.231Z,95123.78
2018-08-22T07:14:10.765Z,95123.19
2018-08-22T07:16:39.823Z,95124.11
2018-08-22T07:19:08.871Z,95125.05
2018-08-22T07:21:41.015Z,95122.98
2018-08-22T07:24:09.897Z,95115.08
2018-08-22T07:26:38.835Z,95116.73
2018-08-22T07:29:07.612Z,95116.00
2018-08-22T07:31:36.255Z,95119.46
2018-08-22T07:34:05.246Z,95118.12
2018-08-22T07:36:34.095Z,95115.12
2018-08-22T07:39:02.867Z,95118.03
2018-08-22T07:41:31.635Z,95121.03
2018-08-22T07:44:00.359Z,95117.58
2018-08-22T07:46:29.162Z,95125.25
2018-08-22T07:48:58.188Z,95122.10
2018-08-22T07:51:27.443Z,95117.10
2018-08-22T07:53:56.732Z,95118.84
2018-08-22T07:56:25.986Z,95116.54
2018-08-22T08:01:28.195Z,95117.47
2018-08-22T08:03:57.287Z,95117.13
2018-08-22T08:06:26.286Z,95112.73
2018-08-22T08:08:55.083Z,95113.84
2018-08-22T08:11:24.023Z,95106.36
2018-08-22T08:13:52.740Z,95103.21
2018-08-22T08:16:21.464Z,95110.55
2018-08-22T08:18:50.442Z,95111.20
2018-08-22T08:21:19.324Z,95108.81
2018-08-22T08:23:48.282Z,95106.52
2018-08-22T08:26:17.366Z,95102.70
2018-08-22T08:28:46.355Z,95105.81
2018-08-22T08:31:15.266Z,95103.19
2018-08-22T08:33:44.044Z,95100.08
2018-08-22T08:36:13.080Z,95090.16
2018-08-22T08:38:42.531Z,95096.64
2018-08-22T08:41:11.334Z,95095.18
2018-08-22T08:43:41.318Z,95094.88
2018-08-22T08:46:10.034Z,95089.58
2018-08-22T08:48:38.827Z,95087.66
2018-08-22T08:51:07.807Z,95077.85
2018-08-22T08:53:36.678Z,95084.66
2018-08-22T08:56:05.551Z,95082.30
2018-08-22T08:58:34.390Z,95073.02
2018-08-22T09:01:03.652Z,95080.27
2018-08-22T09:03:32.367Z,95079.93
2018-08-22T09:06:01.516Z,95078.52
2018-08-22T09:08:30.310Z,95077.98
2018-08-22T09:10:59.199Z,95075.91
2018-08-22T09:13:28.068Z,95078.67
2018-08-22T09:15:56.769Z,95068.48
2018-08-22T09:18:25.476Z,95071.98
2018-08-22T09:20:54.158Z,95065.56
2018-08-22T09:23:22.883Z,95070.64
2018-08-22T09:25:51.693Z,95064.59
2018-08-22T09:28:20.721Z,95063.05
2018-08-22T09:30:49.759Z,95060.34
2018-08-22T09:33:18.609Z,95053.84
2018-08-22T09:35:47.546Z,95042.55
2018-08-22T09:38:16.406Z,95053.64
2018-08-22T09:40:45.462Z,95046.87
2018-08-22T09:43:14.294Z,95045.39
2018-08-22T09:45:43.369Z,95039.52
2018-08-22T09:48:12.357Z,95036.02
2018-08-22T09:50:41.104Z,95036.58
2018-08-22T09:53:09.994Z,95034.73
2018-08-22T09:55:38.722Z,95034.47
2018-08-22T09:58:07.832Z,95030.27
2018-08-22T10:00:42.084Z,95026.84
2018-08-22T10:03:11.013Z,95027.94
2018-08-22T10:05:39.714Z,95023.20
2018-08-22T10:08:09.211Z,95024.02
2018-08-22T10:10:38.325Z,95016.59
2018-08-22T10:13:07.234Z,95018.38
2018-08-22T10:15:36.013Z,95020.00
2018-08-22T10:18:05.100Z,95009.97
2018-08-22T10:20:33.992Z,95011.59
2018-08-22T10:23:03.135Z,95012.48
2018-08-22T10:25:31.792Z,95010.13
2018-08-22T10:28:00.378Z,95007.99
2018-08-22T10:30:29.010Z,95002.06
2018-08-22T10:32:57.964Z,95004.10
2018-08-22T10:35:26.892Z,94999.28
2018-08-22T10:37:55.795Z,94996.13
2018-08-22T10:40:24.633Z,94999.11
2018-08-22T10:42:53.454Z,95006.06
2018-08-22T10:45:22.281Z,95001.34
2018-08-22T10:47:51.496Z,94998.89
2018-08-22T10:50:20.251Z,94997.59
2018-08-22T10:52:49.205Z,94989.58
2018-08-22T10:55:18.064Z,94995.45
2018-08-22T10:57:47.018Z,94992.34
2018-08-22T11:00:15.711Z,94990.27
2018-08-22T11:02:44.527Z,94985.05
2018-08-22T11:05:13.470Z,94979.88
2018-08-22T11:07:42.639Z,94984.59
2018-08-22T11:10:11.614Z,94982.04
2018-08-22T11:12:40.731Z,94978.37
2018-08-22T11:15:09.567Z,94980.55
2018-08-22T11:17:38.615Z,94983.23
2018-08-22T11:20:07.600Z,94973.05
2018-08-22T11:22:47.429Z,94972.14
2018-08-22T11:25:27.298Z,94969.61
2018-08-22T11:28:07.009Z,94964.97
2018-08-22T11:30:47.095Z,94967.07
2018-08-22T11:33:26.895Z,94958.17
2018-08-22T11:35:54.348Z,94961.02
2018-08-22T11:38:23.261Z,94958.02
2018-08-22T11:40:52.103Z,94952.63
2018-08-22T11:43:21.443Z,94957.10
2018-08-22T11:45:50.343Z,94960.87
2018-08-22T11:48:19.566Z,94946.55
2018-08-22T11:50:48.274Z,94946.69
2018-08-22T11:53:17.366Z,94937.61
2018-08-22T11:55:46.155Z,94940.76
2018-08-22T11:58:15.157Z,94946.03
2018-08-22T12:00:44.520Z,94942.23
2018-08-22T12:03:13.267Z,94935.52
2018-08-22T12:05:41.910Z,94931.91
2018-08-22T12:08:11.672Z,94925.59
2018-08-22T12:10:40.998Z,94928.12
2018-08-22T12:13:10.063Z,94926.39
2018-08-22T12:15:38.935Z,94920.93
2018-08-22T12:18:07.862Z,94924.09
2018-08-22T12:20:37.004Z,94920.62
2018-08-22T12:23:05.944Z,94918.10
2018-08-22T12:25:35.168Z,94916.69
2018-08-22T12:28:04.305Z,94915.50
2018-08-22T12:30:33.167Z,94917.59
2018-08-22T12:33:02.033Z,94909.62
2018-08-22T12:35:30.774Z,94919.42
2018-08-22T12:37:59.426Z,94913.86
2018-08-22T12:40:28.165Z,94905.56
2018-08-22T12:42:56.855Z,94910.37
2018-08-22T12:45:25.908Z,94915.17
2018-08-22T12:47:54.844Z,94874.13
2018-08-22T12:50:23.691Z,94906.42
2018-08-22T12:52:52.620Z,94892.33
2018-08-22T12:55:21.666Z,94900.48
2018-08-22T12:57:50.669Z,94895.05
2018-08-22T13:00:19.386Z,94900.66
2018-08-22T13:02:48.238Z,94893.20
2018-08-22T13:05:17.419Z,94892.03
2018-08-22T13:07:46.097Z,94887.98
2018-08-22T13:10:14.887Z,94885.70
2018-08-22T13:12:43.636Z,94885.31
2018-08-22T13:15:12.773Z,94882.80
2018-08-22T13:17:41.939Z,94887.09
2018-08-22T13:20:11.110Z,94888.36
2018-08-22T13:22:39.974Z,94880.19
2018-08-22T13:25:09.022Z,94876.42
2018-08-22T13:27:37.902Z,94882.42
2018-08-22T13:30:07.529Z,94880.95
2018-08-22T13:32:36.617Z,94879.25
2018-08-22T13:35:05.610Z,94877.34
2018-08-22T13:37:36.176Z,94876.44
2018-08-22T13:40:05.333Z,94876.16
2018-08-22T13:42:34.297Z,94869.43
2018-08-22T13:45:03.157Z,94870.45
2018-08-22T13:47:32.006Z,94871.05
2018-08-22T13:50:01.166Z,94878.90
2018-08-22T13:52:30.092Z,94877.70
2018-08-22T13:54:59.175Z,94884.91
2018-08-22T13:57:28.066Z,94878.60
2018-08-22T13:59:56.788Z,94872.19
2018-08-22T14:02:26.247Z,94870.20
2018-08-22T14:04:55.325Z,94875.31
2018-08-22T14:07:24.122Z,94868.39
2018-08-22T14:09:53.052Z,94871.03
2018-08-22T14:12:22.371Z,94869.83
2018-08-22T14:14:51.096Z,94863.19
2018-08-22T14:17:19.846Z,94862.48
2018-08-22T14:19:48.776Z,94871.33
2018-08-22T14:22:17.600Z,94871.27
2018-08-22T14:24:46.580Z,94866.77
2018-08-22T14:27:15.918Z,94862.24
2018-08-22T14:29:45.068Z,94853.03
2018-08-22T14:32:14.078Z,94853.02
2018-08-22T14:34:42.854Z,94858.82
2018-08-22T14:37:11.690Z,94854.88
2018-08-22T14:39:40.881Z,94852.44
2018-08-22T14:42:09.779Z,94849.68
2018-08-22T14:44:38.704Z,94851.22
2018-08-22T14:47:07.458Z,94849.84
2018-08-22T14:49:36.226Z,94845.31
2018-08-22T14:52:05.093Z,94849.41
2018-08-22T14:54:34.052Z,94844.58
2018-08-22T14:57:02.991Z,94843.15
2018-08-22T14:59:32.190Z,94837.23
2018-08-22T15:02:01.260Z,94845.02
2018-08-22T15:04:30.206Z,94851.93
2018-08-22T15:06:58.993Z,94849.21
2018-08-22T15:09:28.147Z,94851.95
2018-08-22T15:11:56.783Z,94847.31
2018-08-22T15:14:25.616Z,94849.83
2018-08-22T15:16:54.385Z,94854.06
2018-08-22T15:19:23.646Z,94850.52
2018-08-22T15:21:52.411Z,94846.26
2018-08-22T15:24:21.135Z,94849.46
2018-08-22T15:26:50.211Z,94847.44
2018-08-22T15:29:19.147Z,94842.01
2018-08-22T15:31:48.092Z,94844.89
2018-08-22T15:34:16.844Z,94851.48
2018-08-22T15:36:45.662Z,94852.62
2018-08-22T15:39:14.543Z,94852.59
2018-08-22T15:41:43.237Z,94855.36
2018-08-22T15:44:12.071Z,94852.20
2018-08-22T15:46:41.074Z,94856.87
2018-08-22T15:49:10.110Z,94852.79
2018-08-22T15:51:38.934Z,94852.20
2018-08-22T15:54:10.932Z,94852.23
2018-08-22T15:56:41.089Z,94846.85
2018-08-22T15:59:10.952Z,94849.91
2018-08-22T16:01:40.075Z,94859.90
2018-08-22T16:04:09.548Z,94854.97
2018-08-22T16:06:38.613Z,94847.82
2018-08-22T16:09:15.599Z,94851.17
2018-08-22T16:11:44.895Z,94848.30
2018-08-22T16:14:13.723Z,94846.30
2018-08-22T16:16:42.797Z,94851.36
2018-08-22T16:19:11.823Z,94855.38
2018-08-22T16:21:40.695Z,94850.30
2018-08-22T16:24:09.585Z,94845.97
2018-08-22T16:26:38.300Z,94848.45
2018-08-22T16:29:07.133Z,94845.16
2018-08-22T16:31:40.081Z,94848.59
2018-08-22T16:34:11.404Z,94852.23
2018-08-22T16:36:40.601Z,94854.72
2018-08-22T16:39:09.871Z,94855.13
2018-08-22T16:41:39.102Z,94854.38
2018-08-22T16:44:08.259Z,94852.81
2018-08-22T16:46:36.983Z,94858.20
2018-08-22T16:49:05.886Z,94858.67
2018-08-22T16:51:34.820Z,94851.76
2018-08-22T16:54:08.596Z,94862.50
2018-08-22T16:56:37.384Z,94871.82
2018-08-22T16:59:12.813Z,94865.94
2018-08-22T17:01:45.499Z,94870.55
2018-08-22T17:04:14.240Z,94878.92
2018-08-22T17:06:43.133Z,94880.59
2018-08-22T17:09:12.408Z,94873.45
2018-08-22T17:11:41.678Z,94878.05
2018-08-22T17:14:10.659Z,94876.20
2018-08-22T17:16:39.617Z,94882.88
2018-08-22T17:19:08.473Z,94882.23
2018-08-22T17:21:37.254Z,94884.14
2018-08-22T17:24:06.450Z,94885.47
2018-08-22T17:26:35.187Z,94889.98
2018-08-22T17:29:03.827Z,94893.79
2018-08-22T17:31:32.617Z,94895.52
2018-08-22T17:34:03.339Z,94898.31
2018-08-22T17:36:32.099Z,94902.63
2018-08-22T17:39:01.746Z,94911.63
2018-08-22T17:41:31.255Z,94910.17
2018-08-22T17:44:10.994Z,94923.02
2018-08-22T17:46:45.607Z,94922.30
2018-08-22T17:49:14.532Z,94923.72
2018-08-22T17:52:16.515Z,94931.32
2018-08-22T17:54:45.610Z,94929.81
2018-08-22T17:57:22.824Z,94932.86
2018-08-22T17:59:51.539Z,94933.78
2018-08-22T18:02:20.201Z,94939.39
2018-08-22T18:05:00.807Z,94941.62
2018-08-22T18:07:29.992Z,94951.47
2018-08-22T18:09:58.889Z,94940.95
2018-08-22T18:12:28.598Z,94943.44
2018-08-22T18:14:58.626Z,94947.31
2018-08-22T18:17:27.580Z,94954.70
2018-08-22T18:19:56.808Z,94953.25
2018-08-22T18:22:29.603Z,94955.94
2018-08-22T18:24:58.848Z,94953.23
2018-08-22T18:27:28.057Z,94949.67
2018-08-22T18:29:57.010Z,94949.18
2018-08-22T18:32:25.796Z,94958.22
2018-08-22T18:35:16.495Z,94956.40
2018-08-22T18:37:45.507Z,94959.52
2018-08-22T18:40:18.065Z,94960.20
2018-08-22T18:42:51.357Z,94962.84
2018-08-22T18:45:20.965Z,94964.02
2018-08-22T18:47:49.911Z,94964.91
2018-08-22T18:50:19.120Z,94961.64
2018-08-22T18:52:50.517Z,94959.64
2018-08-22T18:55:20.999Z,94957.75
2018-08-22T18:57:50.102Z,94972.05
2018-08-22T19:00:18.884Z,94978.50
2018-08-22T19:02:49.490Z,94978.47
2018-08-22T19:05:25.402Z,94974.34
2018-08-22T19:08:00.760Z,94972.75
2018-08-22T19:10:34.746Z,94975.03
2018-08-22T19:13:08.940Z,94978.05
2018-08-22T19:15:38.380Z,94979.59
2018-08-22T19:18:08.610Z,94978.22
2018-08-22T19:20:37.767Z,94977.02
2018-08-22T19:23:06.768Z,94972.94
2018-08-22T19:25:35.825Z,94969.44
2018-08-22T19:28:04.850Z,94966.62
2018-08-22T19:30:37.446Z,94966.67
2018-08-22T19:33:10.163Z,94967.77
2018-08-22T19:35:39.264Z,94968.20
2018-08-22T19:38:08.643Z,94969.41
2018-08-22T19:40:38.017Z,94974.27
2018-08-22T19:43:06.763Z,94970.31
2018-08-22T19:45:36.098Z,94970.91
2018-08-22T19:48:05.178Z,94973.66
2018-08-22T19:50:34.096Z,94967.77
2018-08-22T19:53:03.134Z,94971.60
2018-08-22T19:55:32.759Z,94965.64
2018-08-22T19:58:02.023Z,94967.84
2018-08-22T20:00:31.171Z,94964.31
2018-08-22T20:03:00.203Z,94965.39
2018-08-22T20:05:41.862Z,94960.27
2018-08-22T20:08:10.999Z,94965.75
2018-08-22T20:10:40.299Z,94959.67
2018-08-22T20:13:09.274Z,94961.78
2018-08-22T20:15:38.017Z,94966.44
2018-08-22T20:18:06.794Z,94955.53
2018-08-22T20:20:35.820Z,94948.42
2018-08-22T20:23:04.585Z,94954.69
2018-08-22T20:25:33.640Z,94949.69
2018-08-22T20:28:02.507Z,94955.40
2018-08-22T20:30:31.679Z,94954.06
2018-08-22T20:33:06.856Z,94954.33
2018-08-22T20:35:38.768Z,94958.23
2018-08-22T20:38:10.818Z,94953.13
2018-08-22T20:40:39.614Z,94955.67
2018-08-22T20:43:15.147Z,94951.11
2018-08-22T20:45:45.069Z,94957.23
2018-08-22T20:48:14.822Z,94952.45
2018-08-22T20:50:44.666Z,94955.27
2018-08-22T20:53:15.398Z,94951.11
2018-08-22T20:55:44.477Z,94959.98
2018-08-22T20:58:30.806Z,94955.65
2018-08-22T21:01:00.443Z,94966.00
2018-08-22T21:03:29.397Z,94966.33
2018-08-22T21:05:58.312Z,94968.59
2018-08-22T21:08:27.559Z,94968.05
2018-08-22T21:10:56.327Z,94966.64
2018-08-22T21:13:28.509Z,94960.14
2018-08-22T21:15:57.795Z,94967.55
2018-08-22T21:18:26.888Z,94958.80
2018-08-22T21:20:55.767Z,94963.18
2018-08-22T21:23:24.475Z,94962.81
2018-08-22T21:25:53.118Z,94959.04
2018-08-22T21:28:26.774Z,94959.91
2018-08-22T21:31:00.954Z,94953.22
2018-08-22T21:33:30.942Z,94964.64
2018-08-22T21:36:00.002Z,94965.61
2018-08-22T21:38:28.830Z,94972.56
2018-08-22T21:40:57.871Z,94966.39
2018-08-22T21:43:26.763Z,94971.63
2018-08-22T21:45:55.848Z,94963.19
2018-08-22T21:48:26.400Z,94973.69
2018-08-22T21:50:55.290Z,94975.41
2018-08-22T21:53:24.114Z,94975.31
2018-08-22T21:55:53.553Z,94977.13
2018-08-22T21:58:22.218Z,94981.83
2018-08-22T22:00:50.900Z,94981.89
2018-08-22T22:03:24.939Z,94971.48
2018-08-22T22:05:59.292Z,94973.53
2018-08-22T22:08:28.339Z,94979.65
2018-08-22T22:11:01.098Z,94966.94
2018-08-22T22:13:30.421Z,94972.91
2018-08-22T22:16:00.358Z,94970.57
2018-08-22T22:18:30.954Z,94970.09
2018-08-22T22:21:13.217Z,94970.84
2018-08-22T22:23:46.511Z,94975.32
2018-08-22T22:26:16.754Z,94980.22
2018-08-22T22:28:45.680Z,94984.86
2018-08-22T22:31:15.535Z,94978.44
2018-08-22T22:33:48.211Z,94981.34
2018-08-22T22:36:17.343Z,94978.22
2018-08-22T22:38:46.508Z,94976.17
2018-08-22T22:41:15.511Z,94974.92
2018-08-22T22:43:44.519Z,94974.38
2018-08-22T22:46:13.338Z,94974.83
2018-08-22T22:48:43.651Z,94970.14
2018-08-22T22:51:12.520Z,94968.20
2018-08-22T22:53:41.390Z,94973.19
2018-08-22T22:56:10.398Z,94973.83
2018-08-22T22:58:39.219Z,94969.99
2018-08-22T23:01:08.411Z,94973.15
2018-08-22T23:03:37.329Z,94971.63
2018-08-22T23:06:05.769Z,94971.31
2018-08-22T23:08:34.570Z,94971.70
2018-08-22T23:11:03.299Z,94970.13
2018-08-22T23:13:32.493Z,94968.02
2018-08-22T23:16:01.781Z,94975.57
2018-08-22T23:18:30.808Z,94970.69
2018-08-22T23:21:00.255Z,94970.58
2018-08-22T23:23:31.434Z,94971.25
2018-08-22T23:26:07.034Z,94967.69
2018-08-22T23:28:35.761Z,94972.09
2018-08-22T23:31:04.687Z,94970.18
2018-08-22T23:33:33.640Z,94971.97
2018-08-22T23:36:02.586Z,94972.58
2018-08-22T23:38:33.287Z,94968.81
2018-08-22T23:41:03.438Z,94965.98
2018-08-22T23:43:39.050Z,94962.92
2018-08-22T23:46:09.201Z,94961.05
2018-08-22T23:48:38.684Z,94959.06
2018-08-22T23:51:09.493Z,94956.36
2018-08-22T23:53:43.485Z,94962.16
2018-08-22T23:56:20.500Z,94949.41
2018-08-22T23:58:50.155Z,94965.06
